Huvudsida
METAR-TAF:

METAR-TAF

Flygplatser :

Stillwater, Oklahoma, USA

latitud: 36-09-44N, longitud: 097-05-21W, höjd: 300 m

Aktuellt väderrapport

Denna rapport gjordes för 8 minuter sedan, klockan 10:53 UTC
Vind 10 kt från ost
Temperatur 14°C
Fuktighet 82%
Tryck 1014 hPa
Sikt: 16.1 km
Klar himmel

METAR: KSWO 201053Z AUTO 08010KT 10SM CLR 14/11 A2993 RMK AO2 SLP124 T01440106

Tid: 06:01 (11:01 UTC)


TAF: saknas

Aktuella väderrapporter och prognoser från 4000 flygplatser (METAR- och TAF-rapporter).

De tillgängliga stationerna syns som gula och röda prickar på kartan.

För musen över prickarna för att se namnen på stationerna.

Klicka sedan för att få väderrapporter och prognoser.

För att ändra kartan: Klicka på de gröna knapparna med ett svart kors på för att zooma in; den gröna knappen med ett streck på för att zooma ut; eller på de gröna pilarna för angränsande kartor.


METAR-TAF: